Time;durP1;ratioP1;P1;durP2;ratioP2;P2;SDS_P1;SDS_P2;PMS_P1;PMS_P2;Temp;Humidity;BMP_temperature;BMP_pressure;BME280_temperature;BME280_humidity;BME280_pressure;Samples;Min_cycle;Max_cycle;Signal;HPM_P1;HPM_P2
2022/12/09 00:00:34;;;;;;;33.85;26.05;;;;;;;7.08;60.77;100572.09;4908809;29;20040;-65
2022/12/09 00:03:01;;;;;;;32.38;25.38;;;;;;;7.10;60.82;100580.00;4924892;29;20171;-64
2022/12/09 00:05:28;;;;;;;33.90;25.20;;;;;;;7.09;60.83;100572.94;4937774;29;20055;-66
2022/12/09 00:07:55;;;;;;;33.95;26.13;;;;;;;7.07;60.85;100575.72;4914951;29;20044;-64
2022/12/09 00:10:22;;;;;;;33.95;25.23;;;;;;;7.09;60.88;100575.63;4916252;29;20087;-64
2022/12/09 00:12:52;;;;;;;34.58;25.95;;;;;;;7.13;60.87;100578.00;4917288;29;20054;-65
2022/12/09 00:15:19;;;;;;;33.33;24.80;;;;;;;7.15;60.84;100578.78;4918413;29;20062;-65
2022/12/09 00:17:46;;;;;;;35.55;25.63;;;;;;;7.13;60.97;100566.47;4906422;29;20035;-65
2022/12/09 00:20:13;;;;;;;35.95;26.38;;;;;;;7.11;60.86;100571.03;4927483;29;20054;-65
2022/12/09 00:22:39;;;;;;;37.05;28.45;;;;;;;7.10;60.82;100559.50;4917667;29;20051;-65
2022/12/09 00:25:06;;;;;;;39.83;28.60;;;;;;;7.08;60.85;100571.22;4938082;29;20055;-65
2022/12/09 00:27:33;;;;;;;37.30;28.10;;;;;;;7.05;60.81;100566.06;4929120;29;20049;-65
2022/12/09 00:29:59;;;;;;;39.35;28.17;;;;;;;7.00;60.70;100563.69;4905804;29;20044;-64
2022/12/09 00:32:27;;;;;;;40.63;28.83;;;;;;;6.96;60.78;100560.34;4900549;29;20138;-65
2022/12/09 00:34:53;;;;;;;39.22;28.00;;;;;;;6.96;60.87;100562.16;4911101;29;20048;-65
2022/12/09 00:37:20;;;;;;;39.88;27.75;;;;;;;6.92;60.91;100563.28;4898733;29;20048;-65
2022/12/09 00:39:47;;;;;;;39.45;29.20;;;;;;;6.91;60.63;100569.59;4895630;29;20054;-65
2022/12/09 00:42:13;;;;;;;41.45;28.75;;;;;;;6.86;60.78;100569.00;4900033;29;20044;-65
2022/12/09 00:44:40;;;;;;;40.33;28.50;;;;;;;6.81;60.61;100568.41;4916976;29;20407;-65
2022/12/09 00:47:07;;;;;;;40.10;29.42;;;;;;;6.80;61.01;100574.72;4933141;29;20079;-65
2022/12/09 00:49:34;;;;;;;43.85;30.92;;;;;;;6.81;60.95;100568.41;4934859;29;20383;-64
2022/12/09 00:52:00;;;;;;;42.67;31.65;;;;;;;6.86;61.02;100569.88;4918047;29;20051;-65
2022/12/09 00:54:27;;;;;;;44.75;29.58;;;;;;;6.88;61.05;100569.78;4919314;29;20564;-64
2022/12/09 00:56:55;;;;;;;40.47;30.08;;;;;;;6.90;61.10;100568.72;4935392;29;20050;-64
2022/12/09 00:59:22;;;;;;;43.97;32.45;;;;;;;6.94;61.12;100570.25;4935695;29;20036;-64
2022/12/09 01:01:49;;;;;;;44.63;31.13;;;;;;;7.00;61.31;100569.03;4921342;29;20048;-65
2022/12/09 01:04:18;;;;;;;45.92;32.10;;;;;;;7.04;61.12;100567.03;4909729;29;20048;-64
2022/12/09 01:06:44;;;;;;;43.67;31.80;;;;;;;7.06;61.06;100555.31;4916713;29;20051;-65
2022/12/09 01:09:12;;;;;;;44.75;32.85;;;;;;;7.05;61.03;100564.25;4927213;29;20044;-66
2022/12/09 01:11:39;;;;;;;45.25;32.42;;;;;;;7.03;60.93;100567.97;4915757;29;20054;-64
2022/12/09 01:14:06;;;;;;;46.13;32.15;;;;;;;7.00;60.90;100564.53;4925916;29;20052;-64
2022/12/09 01:16:33;;;;;;;47.80;32.20;;;;;;;7.00;60.89;100569.03;4916050;29;20044;-64
2022/12/09 01:19:04;;;;;;;45.03;32.17;;;;;;;6.97;60.94;100566.53;4900152;29;20109;-64
2022/12/09 01:21:32;;;;;;;45.75;32.35;;;;;;;6.94;60.99;100574.75;4931063;29;20047;-65
2022/12/09 01:23:58;;;;;;;45.15;31.33;;;;;;;6.88;60.92;100569.78;4935172;29;20122;-65
2022/12/09 01:26:26;;;;;;;46.80;32.75;;;;;;;6.84;60.90;100574.44;4918198;29;20047;-65
2022/12/09 01:28:54;;;;;;;42.38;31.10;;;;;;;6.84;61.04;100577.09;4921350;29;20048;-65
2022/12/09 01:31:22;;;;;;;46.13;32.30;;;;;;;6.84;61.06;100574.44;4933122;29;20040;-65
2022/12/09 01:33:50;;;;;;;45.53;31.58;;;;;;;6.80;60.93;100586.25;4933633;29;20071;-64
2022/12/09 01:36:24;;;;;;;44.67;31.67;;;;;;;6.75;61.00;100580.31;4930310;29;20130;-65
2022/12/09 01:38:51;;;;;;;45.47;32.28;;;;;;;6.71;61.02;100578.78;4929248;29;20066;-65
2022/12/09 01:41:19;;;;;;;48.63;33.95;;;;;;;6.69;61.05;100583.34;4919753;29;20048;-65
2022/12/09 01:44:11;;;;;;;44.15;30.98;;;;;;;6.66;61.16;100586.16;4919099;29;20048;-64
2022/12/09 01:46:39;;;;;;;46.17;30.67;;;;;;;6.69;61.12;100578.00;4920696;29;20127;-64
2022/12/09 01:49:08;;;;;;;45.42;32.72;;;;;;;6.69;61.20;100578.00;4924024;29;20047;-64
2022/12/09 01:51:35;;;;;;;45.70;32.00;;;;;;;6.73;61.13;100584.03;4922042;29;20061;-64
2022/12/09 01:54:02;;;;;;;45.33;32.55;;;;;;;6.77;61.36;100589.09;4921256;29;20048;-65
2022/12/09 01:56:33;;;;;;;53.67;32.05;;;;;;;6.81;61.16;100579.94;4907159;29;20043;-65
2022/12/09 01:59:08;;;;;;;47.25;32.97;;;;;;;6.82;61.33;100581.66;4939544;29;20044;-67
2022/12/09 02:01:35;;;;;;;49.88;33.15;;;;;;;6.85;61.31;100578.81;4920784;29;20043;-65
2022/12/09 02:04:02;;;;;;;49.28;32.05;;;;;;;6.88;61.17;100581.31;4915630;29;20047;-70
2022/12/09 02:06:29;;;;;;;53.88;33.60;;;;;;;6.91;61.14;100574.91;4913298;29;20032;-65
2022/12/09 02:08:57;;;;;;;49.97;32.63;;;;;;;6.94;61.08;100577.41;4920545;29;20099;-64
2022/12/09 02:11:37;;;;;;;53.47;32.78;;;;;;;6.97;61.29;100577.22;4922107;29;20040;-65
2022/12/09 02:14:15;;;;;;;50.15;33.90;;;;;;;6.98;61.01;100577.13;4914705;29;20071;-65
2022/12/09 02:17:12;;;;;;;48.92;32.55;;;;;;;6.96;61.14;100575.50;4891064;29;20051;-64
2022/12/09 02:20:00;;;;;;;50.65;32.20;;;;;;;6.99;61.08;100572.66;4904114;29;20148;-65
2022/12/09 02:22:37;;;;;;;48.95;33.53;;;;;;;6.98;61.07;100577.13;4907233;29;20418;-64
2022/12/09 02:25:13;;;;;;;60.92;33.78;;;;;;;6.97;61.11;100571.88;4934310;29;20050;-66
2022/12/09 02:28:03;;;;;;;48.30;32.67;;;;;;;6.93;61.07;100573.88;4903183;29;20111;-66
2022/12/09 02:30:40;;;;;;;50.67;32.03;;;;;;;6.88;61.09;100573.28;4914815;29;20080;-65
2022/12/09 02:33:24;;;;;;;52.25;32.88;;;;;;;6.82;61.14;100571.00;4909927;29;20100;-65
2022/12/09 02:36:04;;;;;;;51.00;32.83;;;;;;;6.78;61.03;100571.28;4914731;29;20044;-65
2022/12/09 02:38:32;;;;;;;49.28;32.42;;;;;;;6.76;61.01;100571.38;4902482;29;20056;-64
2022/12/09 02:41:06;;;;;;;51.15;31.38;;;;;;;6.77;61.16;100575.75;4907916;29;20391;-65
2022/12/09 02:43:40;;;;;;;55.97;34.97;;;;;;;6.77;61.23;100572.22;4906448;29;20044;-64
2022/12/09 02:46:18;;;;;;;54.17;33.80;;;;;;;6.76;61.29;100576.69;4902768;29;20410;-64
2022/12/09 02:48:53;;;;;;;53.80;33.58;;;;;;;6.76;61.19;100582.03;4918480;29;20456;-64
2022/12/09 02:51:22;;;;;;;63.72;34.22;;;;;;;6.79;61.29;100579.19;4920517;29;20044;-65
2022/12/09 02:53:55;;;;;;;53.25;33.78;;;;;;;6.81;60.97;100571.94;4918023;29;20043;-65
2022/12/09 02:56:23;;;;;;;49.72;34.47;;;;;;;6.85;61.21;100570.81;4909032;29;20063;-65
2022/12/09 02:58:50;;;;;;;57.38;34.00;;;;;;;6.87;61.11;100566.25;4900480;29;20452;-65
2022/12/09 03:01:31;;;;;;;57.00;35.05;;;;;;;6.89;61.13;100567.00;4894124;29;20143;-65
2022/12/09 03:03:57;;;;;;;54.88;32.97;;;;;;;6.91;61.18;100559.75;4917238;29;20499;-64
2022/12/09 03:06:30;;;;;;;57.70;35.35;;;;;;;6.91;61.26;100557.09;4906374;29;20456;-65
2022/12/09 03:09:06;;;;;;;59.83;35.35;;;;;;;6.88;61.05;100557.28;4913497;29;20088;-64
2022/12/09 03:11:34;;;;;;;70.40;37.15;;;;;;;6.88;61.16;100554.59;4918160;29;20055;-64
2022/12/09 03:14:08;;;;;;;67.82;36.67;;;;;;;6.85;61.00;100560.13;4931091;29;20505;-64
2022/12/09 03:16:45;;;;;;;60.53;36.42;;;;;;;6.82;61.23;100560.31;4906582;29;20135;-65
2022/12/09 03:19:27;;;;;;;67.68;37.70;;;;;;;6.79;61.06;100554.31;4918215;29;20076;-65
2022/12/09 03:22:02;;;;;;;58.17;34.83;;;;;;;6.77;61.14;100557.06;4914299;29;20075;-65
2022/12/09 03:24:37;;;;;;;62.85;36.53;;;;;;;6.74;61.21;100554.59;4900447;29;20048;-65
2022/12/09 03:27:08;;;;;;;61.00;36.10;;;;;;;6.75;61.25;100552.78;4926104;29;20047;-66
2022/12/09 03:29:38;;;;;;;63.63;37.25;;;;;;;6.75;61.13;100550.97;4933982;29;20048;-65
2022/12/09 03:32:07;;;;;;;66.95;36.83;;;;;;;6.73;61.24;100544.84;4925623;29;20043;-66
2022/12/09 03:34:41;;;;;;;62.40;38.00;;;;;;;6.73;61.20;100544.84;4905183;29;20044;-64
2022/12/09 03:37:10;;;;;;;69.88;37.00;;;;;;;6.71;61.19;100533.41;4918321;29;20395;-65
2022/12/09 03:39:39;;;;;;;63.78;37.25;;;;;;;6.74;61.17;100540.38;4922754;29;20040;-64
2022/12/09 03:42:17;;;;;;;63.08;36.72;;;;;;;6.72;61.17;100544.94;4920262;29;20083;-65
2022/12/09 03:44:49;;;;;;;70.30;38.67;;;;;;;6.72;61.20;100539.63;4899604;29;20064;-65
2022/12/09 03:47:16;;;;;;;70.75;39.40;;;;;;;6.71;61.27;100541.41;4899792;29;20049;-65
2022/12/09 03:49:43;;;;;;;70.72;37.92;;;;;;;6.69;61.26;100540.66;4899678;29;20403;-64
2022/12/09 03:52:14;;;;;;;70.45;37.92;;;;;;;6.69;61.31;100532.66;4900465;29;20049;-64
2022/12/09 03:54:46;;;;;;;70.40;40.65;;;;;;;6.71;61.26;100541.41;4904685;29;20131;-66
2022/12/09 03:57:16;;;;;;;74.38;39.03;;;;;;;6.71;61.38;100541.41;4927171;29;20151;-64
2022/12/09 03:59:52;;;;;;;65.22;38.72;;;;;;;6.71;61.33;100541.41;4937064;29;20055;-65
2022/12/09 04:02:19;;;;;;;71.30;39.47;;;;;;;6.71;61.30;100538.75;4935458;29;20051;-65
2022/12/09 04:04:46;;;;;;;83.03;40.00;;;;;;;6.70;61.35;100539.72;4918362;29;20048;-65
2022/12/09 04:07:13;;;;;;;76.15;41.03;;;;;;;6.68;61.41;100538.91;4918150;29;20048;-64
2022/12/09 04:09:40;;;;;;;76.60;40.92;;;;;;;6.66;61.36;100539.00;4921911;29;20402;-64
2022/12/09 04:12:07;;;;;;;71.05;41.20;;;;;;;6.68;61.38;100533.56;4936001;29;20116;-64
2022/12/09 04:14:34;;;;;;;67.30;39.03;;;;;;;6.69;61.39;100533.50;4917409;29;20499;-65
2022/12/09 04:17:01;;;;;;;68.22;39.33;;;;;;;6.72;61.41;100531.59;4901010;29;20392;-64
2022/12/09 04:19:28;;;;;;;74.35;40.70;;;;;;;6.73;61.35;100533.31;4917886;29;20499;-65
2022/12/09 04:21:55;;;;;;;69.88;39.75;;;;;;;6.73;61.44;100528.84;4917940;29;20076;-65
2022/12/09 04:24:21;;;;;;;79.55;40.92;;;;;;;6.74;61.35;100529.69;4917074;29;20040;-65
2022/12/09 04:26:48;;;;;;;75.45;40.92;;;;;;;6.73;61.44;100523.50;4917867;29;20143;-65
2022/12/09 04:29:15;;;;;;;78.65;40.67;;;;;;;6.69;61.37;100529.97;4917431;29;20054;-66
2022/12/09 04:31:41;;;;;;;79.22;41.05;;;;;;;6.63;61.37;100525.84;4917885;29;20099;-66
2022/12/09 04:34:08;;;;;;;87.30;41.10;;;;;;;6.58;61.35;100533.25;4917106;29;20145;-65
2022/12/09 04:36:36;;;;;;;68.22;38.70;;;;;;;6.55;61.41;100524.56;4935295;29;20044;-64
2022/12/09 04:39:03;;;;;;;72.32;37.85;;;;;;;6.52;61.40;100527.44;4911758;29;20048;-64
2022/12/09 04:41:30;;;;;;;73.95;38.42;;;;;;;6.49;61.46;100520.47;4917739;29;20055;-64
2022/12/09 04:43:57;;;;;;;79.05;38.70;;;;;;;6.51;61.49;100525.72;4910840;29;20039;-65
2022/12/09 04:46:24;;;;;;;72.32;40.42;;;;;;;6.48;61.60;100529.41;4936553;29;20139;-66
2022/12/09 04:48:51;;;;;;;67.85;38.33;;;;;;;6.44;61.52;100519.88;4936599;29;20080;-66
2022/12/09 04:51:18;;;;;;;76.00;37.97;;;;;;;6.43;61.59;100527.97;4935659;29;20055;-65
2022/12/09 04:53:45;;;;;;;69.32;39.10;;;;;;;6.43;61.70;100519.97;4923648;29;20048;-66
2022/12/09 04:56:17;;;;;;;73.82;40.15;;;;;;;6.45;61.65;100518.06;4917076;29;20050;-65
2022/12/09 04:58:45;;;;;;;79.47;40.35;;;;;;;6.45;61.74;100529.59;4935677;29;20051;-66
2022/12/09 05:01:14;;;;;;;70.70;38.80;;;;;;;6.48;61.65;100524.09;4919654;29;20399;-66
2022/12/09 05:03:50;;;;;;;72.22;37.95;;;;;;;6.53;61.80;100524.66;4924388;29;20036;-65
2022/12/09 05:06:18;;;;;;;70.00;39.40;;;;;;;6.59;61.64;100526.97;4923710;29;20071;-65
2022/12/09 05:08:46;;;;;;;78.97;41.05;;;;;;;6.65;61.75;100520.41;4936451;29;20044;-64
2022/12/09 05:11:14;;;;;;;69.35;38.60;;;;;;;6.71;61.70;100524.56;4928153;29;20058;-65
2022/12/09 05:13:41;;;;;;;72.50;39.22;;;;;;;6.76;61.66;100526.00;4932930;29;20569;-64
2022/12/09 05:16:10;;;;;;;68.63;38.42;;;;;;;6.80;61.65;100524.84;4926957;29;20571;-66
2022/12/09 05:18:43;;;;;;;75.90;38.92;;;;;;;6.83;61.62;100527.34;4917220;29;20083;-66
2022/12/09 05:21:13;;;;;;;71.63;38.88;;;;;;;6.81;61.49;100525.72;4909244;29;20503;-66
2022/12/09 05:23:41;;;;;;;80.65;40.88;;;;;;;6.79;61.51;100519.59;4913340;29;20044;-65
2022/12/09 05:26:10;;;;;;;73.30;38.88;;;;;;;6.75;61.54;100516.28;4909818;29;20110;-65
2022/12/09 05:28:38;;;;;;;76.88;38.78;;;;;;;6.75;61.40;100518.94;4909293;29;20519;-65
2022/12/09 05:31:08;;;;;;;67.63;38.50;;;;;;;6.75;61.46;100518.09;4909160;29;20537;-65
2022/12/09 05:33:35;;;;;;;72.72;38.13;;;;;;;6.77;61.55;100524.19;4907138;29;20115;-65
2022/12/09 05:36:02;;;;;;;70.20;38.97;;;;;;;6.78;61.47;100520.56;4909765;29;20032;-65
2022/12/09 05:38:29;;;;;;;72.75;40.20;;;;;;;6.79;61.52;100522.28;4898071;29;20045;-64
2022/12/09 05:40:59;;;;;;;76.45;40.25;;;;;;;6.80;61.53;100511.50;4901477;29;20091;-65
2022/12/09 05:43:26;;;;;;;68.70;38.92;;;;;;;6.80;61.51;100511.50;4916143;29;20048;-65
2022/12/09 05:45:53;;;;;;;67.20;38.45;;;;;;;6.81;61.48;100509.69;4916323;29;20036;-65
2022/12/09 05:48:20;;;;;;;74.85;39.97;;;;;;;6.83;61.40;100514.00;4916844;29;20052;-65
2022/12/09 05:51:00;;;;;;;67.57;38.38;;;;;;;6.85;61.42;100520.09;4906911;29;20053;-64
2022/12/09 05:53:28;;;;;;;79.25;39.63;;;;;;;6.87;61.43;100510.19;4910802;29;20096;-65
2022/12/09 05:55:54;;;;;;;69.78;38.00;;;;;;;6.89;61.44;100512.75;4915800;29;20055;-64
2022/12/09 05:58:22;;;;;;;75.18;39.30;;;;;;;6.90;61.31;100517.16;4916947;29;20075;-64
2022/12/09 06:00:49;;;;;;;69.32;37.70;;;;;;;6.88;61.19;100519.91;4917203;29;20063;-65
2022/12/09 06:03:16;;;;;;;86.85;39.03;;;;;;;6.85;61.21;100520.09;4916678;29;20100;-65
2022/12/09 06:05:43;;;;;;;77.47;40.72;;;;;;;6.77;61.29;100526.84;4929253;29;20050;-65
2022/12/09 06:08:10;;;;;;;81.20;40.67;;;;;;;6.69;61.46;100521.97;4922260;29;20403;-65
2022/12/09 06:10:38;;;;;;;85.85;40.47;;;;;;;6.60;61.24;100522.50;4934774;29;20043;-65
2022/12/09 06:13:06;;;;;;;76.93;38.97;;;;;;;6.54;61.34;100518.38;4924338;29;20124;-65
2022/12/09 06:15:33;;;;;;;83.68;39.83;;;;;;;6.52;61.32;100520.28;4934188;29;20447;-64
2022/12/09 06:18:01;;;;;;;72.07;38.03;;;;;;;6.51;61.47;100523.91;4916748;29;20041;-65
2022/12/09 06:20:28;;;;;;;69.55;36.60;;;;;;;6.50;61.43;100524.84;4921870;29;20450;-65
2022/12/09 06:22:55;;;;;;;71.50;37.20;;;;;;;6.47;61.42;100522.38;4933867;29;20044;-65
2022/12/09 06:25:22;;;;;;;66.22;35.60;;;;;;;6.48;61.48;100518.75;4937967;29;20039;-65
2022/12/09 06:27:50;;;;;;;71.38;36.28;;;;;;;6.49;61.32;100520.47;4921479;29;20135;-65
2022/12/09 06:30:17;;;;;;;70.03;37.22;;;;;;;6.47;61.38;100527.69;4939335;29;20079;-65
2022/12/09 06:32:44;;;;;;;73.40;37.85;;;;;;;6.47;61.57;100522.38;4938759;29;20051;-65
2022/12/09 06:35:10;;;;;;;67.25;36.30;;;;;;;6.48;61.54;100529.41;4925531;29;20056;-64
2022/12/09 06:37:38;;;;;;;75.05;38.20;;;;;;;6.47;61.42;100524.19;4935082;29;20040;-65
2022/12/09 06:40:05;;;;;;;66.13;36.28;;;;;;;6.47;61.44;100527.69;4938120;29;20146;-65
2022/12/09 06:42:32;;;;;;;58.00;32.72;;;;;;;6.49;61.49;100525.81;4930099;29;20092;-65
2022/12/09 06:44:59;;;;;;;64.75;35.60;;;;;;;6.54;61.59;100522.88;4924206;29;20063;-65
2022/12/09 06:47:26;;;;;;;59.90;32.08;;;;;;;6.55;61.48;100528.09;4935794;29;20080;-65
2022/12/09 06:49:52;;;;;;;64.63;34.65;;;;;;;6.50;61.43;100521.31;4909660;29;20399;-65
2022/12/09 06:52:19;;;;;;;58.38;34.67;;;;;;;6.47;61.37;100525.03;4902587;29;20045;-65
2022/12/09 06:54:46;;;;;;;58.42;33.72;;;;;;;6.46;61.36;100527.78;4903081;29;20092;-65
2022/12/09 06:57:13;;;;;;;60.45;34.75;;;;;;;6.45;61.67;100526.06;4918933;29;20079;-65
2022/12/09 06:59:40;;;;;;;64.50;33.40;;;;;;;6.45;61.37;100518.06;4933672;29;20139;-66
2022/12/09 07:02:08;;;;;;;63.70;34.60;;;;;;;6.45;61.31;100521.59;4936103;29;20091;-65
2022/12/09 07:04:35;;;;;;;66.25;34.65;;;;;;;6.44;61.44;100527.03;4936589;29;20443;-65
2022/12/09 07:07:02;;;;;;;68.88;36.33;;;;;;;6.44;61.46;100522.56;4923256;29;20180;-65
2022/12/09 07:09:29;;;;;;;70.10;35.13;;;;;;;6.47;61.30;100517.03;4908273;29;20044;-65
2022/12/09 07:11:56;;;;;;;70.32;36.20;;;;;;;6.47;61.43;100522.38;4900307;29;20120;-66
2022/12/09 07:14:23;;;;;;;70.60;36.03;;;;;;;6.50;61.40;100524.00;4916080;29;20044;-66
2022/12/09 07:16:50;;;;;;;76.15;37.20;;;;;;;6.51;61.37;100523.03;4921363;29;20127;-66
2022/12/09 07:19:19;;;;;;;74.05;36.70;;;;;;;6.52;61.23;100522.09;4902701;29;20104;-67
2022/12/09 07:21:48;;;;;;;69.07;35.95;;;;;;;6.53;61.12;100526.47;4900366;29;20596;-65
2022/12/09 07:24:17;;;;;;;70.13;37.38;;;;;;;6.53;61.11;100526.47;4900231;29;20120;-66
2022/12/09 07:26:44;;;;;;;68.40;34.63;;;;;;;6.52;61.08;100528.28;4930104;29;20127;-67
2022/12/09 07:29:11;;;;;;;67.45;35.15;;;;;;;6.49;60.92;100533.81;4938180;29;20054;-66
2022/12/09 07:31:38;;;;;;;69.95;35.47;;;;;;;6.45;60.90;100534.06;4934601;29;20051;-65
2022/12/09 07:34:05;;;;;;;70.57;36.58;;;;;;;6.43;60.82;100538.66;4937872;29;20411;-66
2022/12/09 07:36:34;;;;;;;63.45;34.10;;;;;;;6.40;60.78;100542.34;4925803;29;20049;-66
2022/12/09 07:39:04;;;;;;;61.33;33.33;;;;;;;6.37;60.74;100547.88;4919725;29;20514;-66
2022/12/09 07:41:31;;;;;;;65.63;35.00;;;;;;;6.35;60.72;100550.63;4936549;29;20094;-66
2022/12/09 07:43:58;;;;;;;69.65;35.13;;;;;;;6.36;60.90;100556.81;4932339;29;20103;-66
2022/12/09 07:46:28;;;;;;;63.47;33.42;;;;;;;6.36;60.66;100562.16;4915822;29;20092;-66
2022/12/09 07:48:56;;;;;;;59.30;33.13;;;;;;;6.35;60.80;100560.44;4935931;29;20078;-66
2022/12/09 07:51:24;;;;;;;62.60;33.50;;;;;;;6.35;60.79;100563.09;4937587;29;20044;-67
2022/12/09 07:53:52;;;;;;;62.28;32.85;;;;;;;6.36;60.79;100551.47;4918731;29;20043;-66
2022/12/09 07:56:19;;;;;;;62.17;33.22;;;;;;;6.38;60.86;100560.25;4913798;29;20084;-66
2022/12/09 07:58:47;;;;;;;57.88;32.45;;;;;;;6.40;60.90;100561.03;4900192;29;20124;-67
2022/12/09 08:01:17;;;;;;;62.08;33.58;;;;;;;6.43;60.90;100562.66;4912898;29;20399;-66
2022/12/09 08:03:45;;;;;;;67.50;33.72;;;;;;;6.45;60.88;100558.09;4918154;29;20084;-66
2022/12/09 08:06:14;;;;;;;71.15;36.72;;;;;;;6.46;60.96;100559.81;4928243;29;20048;-66
2022/12/09 08:08:42;;;;;;;68.97;35.47;;;;;;;6.45;60.88;100566.94;4937138;29;20107;-66
2022/12/09 08:11:17;;;;;;;72.57;35.67;;;;;;;6.45;60.89;100566.09;4930773;29;20063;-66
2022/12/09 08:13:44;;;;;;;67.75;36.40;;;;;;;6.47;60.75;100566.84;4925937;29;20044;-65
2022/12/09 08:16:13;;;;;;;70.28;35.97;;;;;;;6.50;60.98;100570.19;4917946;29;20559;-65
2022/12/09 08:18:41;;;;;;;73.38;34.67;;;;;;;6.50;60.91;100567.53;4935164;29;20051;-66
2022/12/09 08:21:15;;;;;;;67.68;34.22;;;;;;;6.53;60.83;100563.84;4932961;29;20052;-66
2022/12/09 08:23:42;;;;;;;63.92;34.20;;;;;;;6.55;60.98;100564.59;4934347;29;20115;-65
2022/12/09 08:26:11;;;;;;;68.38;35.15;;;;;;;6.55;60.85;100565.47;4920194;29;20047;-66
2022/12/09 08:28:38;;;;;;;66.93;34.70;;;;;;;6.56;60.93;100569.84;4930432;29;20491;-65
2022/12/09 08:31:07;;;;;;;67.07;35.80;;;;;;;6.58;60.89;100567.94;4905434;29;20032;-66
2022/12/09 08:33:35;;;;;;;69.38;35.25;;;;;;;6.60;60.95;100568.72;4917757;29;20052;-66
2022/12/09 08:36:06;;;;;;;65.45;35.65;;;;;;;6.64;60.89;100569.38;4917706;29;20498;-65
2022/12/09 08:38:33;;;;;;;65.97;34.70;;;;;;;6.66;60.88;100556.81;4917982;29;20048;-65
2022/12/09 08:41:12;;;;;;;65.80;34.42;;;;;;;6.66;60.98;100565.69;4917908;29;20059;-65
2022/12/09 08:43:41;;;;;;;66.70;35.03;;;;;;;6.66;60.91;100552.34;4924331;29;20126;-66
2022/12/09 08:46:08;;;;;;;64.43;33.83;;;;;;;6.66;60.83;100564.81;4936381;29;20076;-65
2022/12/09 08:48:37;;;;;;;63.42;32.25;;;;;;;6.66;60.83;100554.16;4936358;29;20039;-66
2022/12/09 08:51:05;;;;;;;57.28;31.42;;;;;;;6.64;60.93;100550.72;4936542;29;20048;-66
2022/12/09 08:53:32;;;;;;;60.78;30.92;;;;;;;6.62;60.75;100556.13;4929393;29;20040;-67
2022/12/09 08:56:07;;;;;;;59.63;31.13;;;;;;;6.62;60.94;100552.63;4917724;29;20052;-66
2022/12/09 08:58:34;;;;;;;54.72;29.40;;;;;;;6.60;60.19;100558.03;4918011;29;20036;-65
2022/12/09 09:01:02;;;;;;;55.40;30.10;;;;;;;6.53;60.70;100559.34;4917250;29;20056;-65
2022/12/09 09:03:28;;;;;;;53.80;30.17;;;;;;;6.47;60.64;100562.38;4915891;29;20060;-65
2022/12/09 09:06:04;;;;;;;50.15;28.58;;;;;;;6.44;60.82;100562.56;4917321;29;20048;-65
2022/12/09 09:08:37;;;;;;;51.90;27.98;;;;;;;6.48;60.75;100561.44;4917495;29;20403;-65
2022/12/09 09:11:12;;;;;;;55.65;29.63;;;;;;;6.49;60.79;100563.16;4900793;29;20082;-65
2022/12/09 09:13:40;;;;;;;50.05;29.45;;;;;;;6.50;60.57;100558.69;4916463;29;20052;-65
2022/12/09 09:16:10;;;;;;;53.58;30.10;;;;;;;6.52;60.66;100570.97;4920887;29;20510;-65
2022/12/09 09:18:38;;;;;;;53.47;29.83;;;;;;;6.53;60.40;100572.69;4936442;29;20048;-66
2022/12/09 09:21:06;;;;;;;55.42;31.10;;;;;;;6.52;60.48;100570.13;4936188;29;20043;-65
2022/12/09 09:23:33;;;;;;;56.03;29.58;;;;;;;6.52;60.46;100565.63;4929506;29;20040;-65
2022/12/09 09:26:08;;;;;;;54.85;30.40;;;;;;;6.52;60.48;100578.13;4917248;29;20040;-66
2022/12/09 09:28:34;;;;;;;52.55;29.02;;;;;;;6.50;60.37;100583.53;4917580;29;20123;-65
2022/12/09 09:31:04;;;;;;;52.33;29.38;;;;;;;6.49;60.35;100580.97;4917201;29;20124;-65
2022/12/09 09:33:31;;;;;;;51.47;27.90;;;;;;;6.47;60.44;100581.06;4916331;29;20095;-65
2022/12/09 09:36:01;;;;;;;52.30;29.63;;;;;;;6.46;60.34;100578.47;4917137;29;20135;-65
2022/12/09 09:38:35;;;;;;;53.83;29.88;;;;;;;6.50;60.52;100583.53;4917068;29;20048;-66
2022/12/09 09:41:15;;;;;;;52.05;30.52;;;;;;;6.51;60.53;100579.94;4917046;29;20048;-65
2022/12/09 09:43:42;;;;;;;55.40;31.52;;;;;;;6.57;60.43;100582.22;4917274;29;20036;-66
2022/12/09 09:46:19;;;;;;;55.03;31.20;;;;;;;6.61;60.63;100588.25;4919176;29;20075;-65
2022/12/09 09:48:47;;;;;;;53.90;31.35;;;;;;;6.62;60.44;100579.28;4935969;29;20050;-65
2022/12/09 09:51:17;;;;;;;53.85;30.02;;;;;;;6.60;60.64;100581.19;4933151;29;20111;-65
2022/12/09 09:53:48;;;;;;;57.83;32.25;;;;;;;6.56;60.36;100585.00;4916545;29;20044;-66
2022/12/09 09:56:33;;;;;;;57.53;31.33;;;;;;;6.53;60.60;100574.50;4900284;29;20063;-65
2022/12/09 09:59:23;;;;;;;52.90;30.60;;;;;;;6.53;60.54;100577.16;4919039;29;20051;-65
2022/12/09 10:02:17;;;;;;;55.42;30.15;;;;;;;6.52;60.50;100575.44;4920686;29;20566;-65
2022/12/09 10:05:00;;;;;;;53.47;28.15;;;;;;;6.52;60.58;100580.78;4880176;29;20507;-67
2022/12/09 10:07:31;;;;;;;53.17;29.63;;;;;;;6.53;60.43;100577.16;4920782;29;20052;-65
2022/12/09 10:10:25;;;;;;;52.53;29.55;;;;;;;6.55;60.70;100567.25;4920694;29;20044;-65
2022/12/09 10:13:23;;;;;;;52.78;29.25;;;;;;;6.59;60.59;100580.34;4903832;29;20095;-66
2022/12/09 10:16:10;;;;;;;53.78;28.58;;;;;;;6.62;60.51;100577.47;4930135;29;20058;-66
2022/12/09 10:18:47;;;;;;;51.63;29.20;;;;;;;6.66;60.47;100573.69;4939602;29;20127;-66
2022/12/09 10:21:16;;;;;;;50.45;28.20;;;;;;;6.68;60.17;100569.13;4906765;29;20134;-66
2022/12/09 10:23:44;;;;;;;49.33;28.60;;;;;;;6.68;60.28;100569.13;4938959;29;20047;-66
2022/12/09 10:26:25;;;;;;;54.40;28.70;;;;;;;6.66;60.35;100572.81;4934965;29;20570;-66
2022/12/09 10:29:12;;;;;;;52.28;28.35;;;;;;;6.67;60.38;100572.75;4939618;29;20483;-66
2022/12/09 10:31:39;;;;;;;48.80;27.15;;;;;;;6.67;60.30;100572.75;4921931;29;20051;-66
2022/12/09 10:34:08;;;;;;;54.00;29.00;;;;;;;6.65;60.28;100566.63;4939117;29;20442;-66
2022/12/09 10:36:37;;;;;;;46.67;28.23;;;;;;;6.66;60.31;100570.16;4923325;29;20108;-66
2022/12/09 10:39:04;;;;;;;48.00;27.42;;;;;;;6.67;60.27;100571.88;4912004;29;20163;-66
2022/12/09 10:44:31;;;;;;;47.75;27.33;;;;;;;6.70;60.26;100561.06;4938432;29;20048;-65
2022/12/09 10:47:17;;;;;;;49.30;27.52;;;;;;;6.70;60.35;100569.06;4934493;29;20047;-66
2022/12/09 10:49:49;;;;;;;51.63;27.33;;;;;;;6.74;60.10;100565.25;4908604;29;20395;-66
2022/12/09 10:52:21;;;;;;;52.60;28.15;;;;;;;6.76;60.26;100567.84;4900386;29;20448;-66
2022/12/09 10:54:48;;;;;;;50.53;29.13;;;;;;;6.78;60.05;100563.25;4900406;29;20052;-65
2022/12/09 10:57:15;;;;;;;49.03;28.25;;;;;;;6.77;60.03;100564.22;4916983;29;20059;-65
2022/12/09 10:59:59;;;;;;;48.10;28.75;;;;;;;6.81;60.21;100563.09;4919189;29;20043;-65
2022/12/09 11:02:28;;;;;;;49.45;28.58;;;;;;;6.86;60.21;100553.84;4918914;29;20495;-65
2022/12/09 11:04:55;;;;;;;46.03;26.15;;;;;;;6.90;60.12;100557.19;4919549;29;20131;-65
2022/12/09 11:07:25;;;;;;;46.53;25.70;;;;;;;6.89;60.10;100556.31;4918762;29;20435;-65
2022/12/09 11:09:55;;;;;;;45.53;25.50;;;;;;;6.86;60.03;100558.31;4918231;29;20052;-64
2022/12/09 11:12:25;;;;;;;43.33;25.60;;;;;;;6.84;59.92;100558.41;4918863;29;20044;-65
2022/12/09 11:15:24;;;;;;;45.25;24.63;;;;;;;6.85;60.20;100556.59;4919229;29;20040;-65
2022/12/09 11:18:42;;;;;;;42.95;24.58;;;;;;;6.84;59.96;100553.06;4859322;29;20044;-66
2022/12/09 11:21:34;;;;;;;42.95;25.50;;;;;;;6.79;59.66;100557.84;4898659;29;20052;-66
2022/12/09 11:24:03;;;;;;;41.35;24.65;;;;;;;6.76;59.54;100549.16;4900086;29;20053;-65
2022/12/09 11:26:34;;;;;;;42.70;24.45;;;;;;;6.74;59.72;100556.41;4920700;29;20092;-65
2022/12/09 11:29:05;;;;;;;44.38;26.02;;;;;;;6.75;59.75;100542.09;4938010;29;20054;-66
2022/12/09 11:31:38;;;;;;;44.63;25.48;;;;;;;6.77;59.87;100546.38;4937991;29;20062;-65
2022/12/09 11:34:24;;;;;;;48.42;25.75;;;;;;;6.83;59.73;100546.03;4937661;29;20103;-65